createdAt,value
2022-08-26T00:01:54.923Z,40.82
2022-08-26T00:04:25.620Z,40.80
2022-08-26T00:06:55.593Z,41.09
2022-08-26T00:09:24.696Z,41.29
2022-08-26T00:11:52.865Z,41.18
2022-08-26T00:14:19.744Z,41.59
2022-08-26T00:16:48.238Z,41.73
2022-08-26T00:19:21.098Z,41.79
2022-08-26T00:21:49.547Z,41.97
2022-08-26T00:24:18.075Z,42.12
2022-08-26T00:26:44.871Z,42.10
2022-08-26T00:29:12.532Z,42.40
2022-08-26T00:31:40.851Z,42.32
2022-08-26T00:34:09.375Z,42.42
2022-08-26T00:36:37.131Z,42.70
2022-08-26T00:39:04.998Z,42.68
2022-08-26T00:41:34.365Z,42.83
2022-08-26T00:44:01.277Z,43.02
2022-08-26T00:46:36.055Z,43.01
2022-08-26T00:49:34.534Z,43.17
2022-08-26T00:52:05.516Z,43.16
2022-08-26T00:54:42.409Z,43.52
2022-08-26T00:57:16.458Z,43.63
2022-08-26T00:59:46.583Z,43.54
2022-08-26T01:02:20.054Z,43.65
2022-08-26T01:04:54.251Z,43.64
2022-08-26T01:07:24.751Z,43.78
2022-08-26T01:09:51.885Z,43.71
2022-08-26T01:12:21.941Z,43.71
2022-08-26T01:14:50.049Z,43.90
2022-08-26T01:17:17.157Z,44.22
2022-08-26T01:19:43.966Z,44.14
2022-08-26T01:22:17.679Z,44.05
2022-08-26T01:24:44.562Z,44.31
2022-08-26T01:27:15.820Z,44.50
2022-08-26T01:29:45.409Z,44.58
2022-08-26T01:32:16.799Z,44.55
2022-08-26T01:34:46.656Z,44.69
2022-08-26T01:37:15.910Z,44.79
2022-08-26T01:39:45.043Z,44.91
2022-08-26T01:42:15.100Z,45.17
2022-08-26T01:44:47.659Z,45.19
2022-08-26T01:47:17.126Z,45.19
2022-08-26T01:49:48.134Z,45.29
2022-08-26T01:52:22.911Z,45.42
2022-08-26T01:54:52.488Z,45.63
2022-08-26T01:57:21.208Z,45.36
2022-08-26T01:59:50.862Z,45.65
2022-08-26T02:02:18.765Z,45.73
2022-08-26T02:04:57.408Z,45.72
2022-08-26T02:07:26.839Z,45.95
2022-08-26T02:09:54.445Z,45.92
2022-08-26T02:12:21.784Z,46.04
2022-08-26T02:14:53.793Z,45.94
2022-08-26T02:17:26.424Z,46.14
2022-08-26T02:19:53.710Z,46.10
2022-08-26T02:22:24.623Z,46.25
2022-08-26T02:25:11.992Z,46.24
2022-08-26T02:27:39.941Z,46.39
2022-08-26T02:30:11.905Z,46.41
2022-08-26T02:32:40.057Z,46.35
2022-08-26T02:35:08.227Z,46.22
2022-08-26T02:37:35.451Z,46.49
2022-08-26T02:40:03.365Z,46.55
2022-08-26T02:42:30.103Z,46.66
2022-08-26T02:44:56.961Z,46.79
2022-08-26T02:47:24.896Z,46.90
2022-08-26T02:49:52.380Z,46.89
2022-08-26T02:52:20.319Z,47.03
2022-08-26T02:54:47.880Z,46.95
2022-08-26T02:57:17.349Z,46.97
2022-08-26T02:59:44.219Z,47.01
2022-08-26T03:02:13.682Z,46.97
2022-08-26T03:04:41.343Z,47.06
2022-08-26T03:07:25.426Z,47.05
2022-08-26T03:09:53.099Z,47.26
2022-08-26T03:12:20.446Z,47.35
2022-08-26T03:14:47.800Z,47.42
2022-08-26T03:17:14.934Z,47.65
2022-08-26T03:19:41.676Z,47.73
2022-08-26T03:22:08.726Z,47.76
2022-08-26T03:24:35.801Z,47.79
2022-08-26T03:27:05.899Z,47.80
2022-08-26T03:29:53.719Z,47.89
2022-08-26T03:32:20.840Z,47.95
2022-08-26T03:34:48.124Z,47.94
2022-08-26T03:37:14.937Z,48.01
2022-08-26T03:39:41.999Z,47.98
2022-08-26T03:42:09.388Z,47.96
2022-08-26T03:44:41.948Z,48.05
2022-08-26T03:47:09.647Z,48.11
2022-08-26T03:49:36.558Z,48.00
2022-08-26T03:52:04.819Z,48.12
2022-08-26T03:54:32.951Z,48.25
2022-08-26T03:56:59.975Z,48.34
2022-08-26T03:59:27.560Z,48.30
2022-08-26T04:01:54.933Z,48.05
2022-08-26T04:04:22.777Z,48.04
2022-08-26T04:06:59.696Z,48.15
2022-08-26T04:09:27.662Z,48.49
2022-08-26T04:11:55.651Z,48.26
2022-08-26T04:14:25.574Z,48.38
2022-08-26T04:16:55.263Z,48.42
2022-08-26T04:19:23.606Z,48.38
2022-08-26T04:21:54.124Z,46.16
2022-08-26T04:24:24.388Z,45.81
2022-08-26T04:26:51.788Z,44.59
2022-08-26T04:29:24.085Z,43.23
2022-08-26T04:31:55.479Z,41.53
2022-08-26T04:34:27.274Z,40.18
2022-08-26T04:36:56.340Z,38.85
2022-08-26T04:39:23.487Z,38.11
2022-08-26T04:41:55.196Z,37.64
2022-08-26T04:44:25.591Z,36.99
2022-08-26T04:46:52.848Z,36.68
2022-08-26T04:49:21.101Z,36.24
2022-08-26T04:51:49.047Z,36.16
2022-08-26T04:54:16.455Z,35.71
2022-08-26T04:56:45.245Z,35.03
2022-08-26T04:59:16.928Z,35.18
2022-08-26T05:01:51.650Z,35.40
2022-08-26T05:04:20.001Z,35.91
2022-08-26T05:06:48.381Z,35.80
2022-08-26T05:09:15.607Z,36.40
2022-08-26T05:11:42.894Z,35.90
2022-08-26T05:14:09.878Z,35.96
2022-08-26T05:16:40.406Z,36.09
2022-08-26T05:19:08.706Z,36.35
2022-08-26T05:21:39.257Z,36.42
2022-08-26T05:24:06.644Z,36.39
2022-08-26T05:26:33.883Z,36.38
2022-08-26T05:29:01.688Z,36.40
2022-08-26T05:31:31.808Z,36.79
2022-08-26T05:33:59.766Z,36.71
2022-08-26T05:36:33.536Z,35.98
2022-08-26T05:39:01.222Z,35.90
2022-08-26T05:41:36.804Z,35.31
2022-08-26T05:44:11.476Z,34.40
2022-08-26T05:46:40.082Z,33.22
2022-08-26T05:49:12.520Z,32.97
2022-08-26T05:51:41.808Z,29.76
2022-08-26T05:54:10.446Z,27.56
2022-08-26T05:56:38.824Z,24.08
2022-08-26T05:59:06.818Z,22.77
2022-08-26T06:01:42.532Z,23.38
2022-08-26T06:04:10.632Z,23.98
2022-08-26T06:06:41.691Z,24.61
2022-08-26T06:09:12.220Z,24.57
2022-08-26T06:11:39.884Z,24.44
2022-08-26T06:14:08.350Z,21.43
2022-08-26T06:16:41.263Z,18.72
2022-08-26T06:19:11.642Z,17.58
2022-08-26T06:21:41.235Z,18.18
2022-08-26T06:24:32.303Z,19.60
2022-08-26T06:27:02.463Z,20.64
2022-08-26T06:29:33.927Z,21.34
2022-08-26T06:32:02.859Z,21.14
2022-08-26T06:34:30.738Z,22.02
2022-08-26T06:37:02.628Z,21.76
2022-08-26T06:39:30.840Z,21.58
2022-08-26T06:41:57.908Z,21.26
2022-08-26T06:44:24.827Z,20.40
2022-08-26T06:46:51.918Z,19.81
2022-08-26T06:49:26.745Z,19.52
2022-08-26T06:51:54.853Z,20.31
2022-08-26T06:54:22.166Z,21.04
2022-08-26T06:56:49.682Z,21.67
2022-08-26T06:59:18.886Z,22.17
2022-08-26T07:01:46.832Z,22.07
2022-08-26T07:04:20.195Z,22.47
2022-08-26T07:06:52.450Z,22.17
2022-08-26T07:09:21.867Z,21.51
2022-08-26T07:11:49.513Z,21.74
2022-08-26T07:14:19.396Z,21.64
2022-08-26T07:16:51.745Z,20.52
2022-08-26T07:19:29.965Z,20.93
2022-08-26T07:22:00.111Z,20.65
2022-08-26T07:24:29.043Z,20.39
2022-08-26T07:27:02.781Z,18.97
2022-08-26T07:29:30.224Z,18.73
2022-08-26T07:31:57.393Z,18.14
2022-08-26T07:34:27.404Z,17.68
2022-08-26T07:36:55.313Z,17.53
2022-08-26T07:39:22.784Z,17.64
2022-08-26T07:41:49.885Z,16.01
2022-08-26T07:44:16.800Z,13.97
2022-08-26T07:46:51.278Z,13.04
2022-08-26T07:49:24.357Z,13.07
2022-08-26T07:51:51.681Z,11.56
2022-08-26T07:54:19.094Z,9.73
2022-08-26T07:56:48.569Z,9.41
2022-08-26T07:59:17.160Z,9.73
2022-08-26T08:01:45.069Z,9.60
2022-08-26T08:04:13.993Z,10.28
2022-08-26T08:06:41.380Z,10.52
2022-08-26T08:09:12.442Z,8.28
2022-08-26T08:11:41.704Z,7.32
2022-08-26T08:14:11.725Z,6.15
2022-08-26T08:16:41.553Z,5.39
2022-08-26T08:19:13.621Z,5.08
2022-08-26T08:21:41.771Z,4.33
2022-08-26T08:24:08.892Z,4.44
2022-08-26T08:26:35.709Z,4.21
2022-08-26T08:29:03.382Z,3.81
2022-08-26T08:31:55.737Z,3.52
2022-08-26T08:34:21.529Z,3.49
2022-08-26T08:36:48.943Z,3.06
2022-08-26T08:39:17.347Z,2.74
2022-08-26T08:41:56.420Z,2.68
2022-08-26T08:47:20.194Z,2.85
2022-08-26T08:49:47.693Z,3.59
2022-08-26T08:52:29.638Z,3.30
2022-08-26T08:54:57.017Z,3.64
2022-08-26T08:57:39.217Z,3.10
2022-08-26T09:00:16.243Z,3.33
2022-08-26T09:03:24.974Z,3.16
2022-08-26T09:05:53.371Z,2.88
2022-08-26T09:08:36.451Z,3.13
2022-08-26T09:11:04.466Z,2.46
2022-08-26T09:13:31.880Z,2.95
2022-08-26T09:16:10.529Z,2.32
2022-08-26T09:19:05.759Z,2.79
2022-08-26T09:21:33.525Z,2.96
2022-08-26T09:24:02.323Z,2.48
2022-08-26T09:26:48.147Z,2.75
2022-08-26T09:29:25.481Z,2.81
2022-08-26T09:32:13.311Z,2.44
2022-08-26T09:34:58.259Z,1.90
2022-08-26T09:40:35.304Z,4.53
2022-08-26T09:43:05.206Z,6.20
2022-08-26T09:45:33.909Z,7.64
2022-08-26T09:48:01.874Z,8.74
2022-08-26T09:50:36.967Z,9.92
2022-08-26T09:53:12.911Z,10.51
2022-08-26T09:55:45.891Z,11.63
2022-08-26T09:58:15.616Z,12.08
2022-08-26T10:00:54.815Z,12.75
2022-08-26T10:03:31.625Z,13.52
2022-08-26T10:06:38.250Z,13.23
2022-08-26T10:09:09.646Z,13.74
2022-08-26T10:11:47.907Z,14.25
2022-08-26T10:14:33.661Z,14.40
2022-08-26T10:17:16.624Z,14.54
2022-08-26T10:19:56.486Z,14.72
2022-08-26T10:22:27.274Z,14.92
2022-08-26T10:24:57.817Z,15.11
2022-08-26T10:27:34.077Z,15.25
2022-08-26T10:30:07.960Z,15.21
2022-08-26T10:32:45.699Z,15.07
2022-08-26T10:35:14.861Z,15.84
2022-08-26T10:37:51.549Z,16.42
2022-08-26T10:40:25.731Z,16.47
2022-08-26T10:43:11.298Z,16.82
2022-08-26T10:45:47.137Z,16.24
2022-08-26T10:48:21.736Z,16.72
2022-08-26T10:50:49.583Z,16.78
2022-08-26T10:53:42.633Z,16.97
2022-08-26T10:56:29.753Z,16.77
2022-08-26T10:59:12.437Z,16.36
2022-08-26T11:02:03.790Z,16.31
2022-08-26T11:04:49.299Z,16.34
2022-08-26T11:07:39.486Z,16.30
2022-08-26T11:10:21.402Z,16.21
2022-08-26T11:13:08.078Z,15.84
2022-08-26T11:15:41.029Z,15.85
2022-08-26T11:18:39.692Z,16.11
2022-08-26T11:21:41.437Z,16.33
2022-08-26T11:24:08.521Z,16.70
2022-08-26T11:26:56.239Z,16.94
2022-08-26T11:29:57.795Z,17.19
2022-08-26T11:32:36.911Z,17.22
2022-08-26T11:35:24.478Z,17.31
2022-08-26T11:37:56.724Z,17.79
2022-08-26T11:40:28.640Z,17.45
2022-08-26T11:43:19.675Z,17.97
2022-08-26T11:45:49.509Z,17.59
2022-08-26T11:48:19.999Z,17.68
2022-08-26T11:51:03.127Z,17.56
2022-08-26T11:53:32.725Z,17.66
2022-08-26T11:56:04.552Z,17.82
2022-08-26T11:58:32.199Z,17.49
2022-08-26T12:01:06.416Z,17.47
2022-08-26T12:03:50.141Z,17.53
2022-08-26T12:06:28.461Z,17.35
2022-08-26T12:09:01.410Z,17.69
2022-08-26T12:11:31.881Z,17.77
2022-08-26T12:14:02.844Z,17.66
2022-08-26T12:16:32.607Z,17.47
2022-08-26T12:19:00.284Z,17.34
2022-08-26T12:21:34.620Z,17.11
2022-08-26T12:24:04.208Z,17.54
2022-08-26T12:26:33.839Z,17.13
2022-08-26T12:29:19.932Z,17.35
2022-08-26T12:32:07.688Z,16.73
2022-08-26T12:34:34.876Z,16.72
2022-08-26T12:37:03.093Z,17.01
2022-08-26T12:39:38.266Z,16.98
2022-08-26T12:42:15.856Z,17.11
2022-08-26T12:44:54.134Z,17.46
2022-08-26T12:47:42.555Z,17.39
2022-08-26T12:50:12.789Z,17.83
2022-08-26T12:52:54.177Z,17.59
2022-08-26T12:55:31.745Z,17.54
2022-08-26T12:58:16.867Z,17.39
2022-08-26T13:00:46.222Z,17.30
2022-08-26T13:03:34.051Z,17.32
2022-08-26T13:06:29.933Z,17.56
2022-08-26T13:09:25.628Z,17.61
2022-08-26T13:11:54.893Z,17.86
2022-08-26T13:14:24.794Z,17.71
2022-08-26T13:16:53.001Z,17.90
2022-08-26T13:19:22.310Z,17.65
2022-08-26T13:21:55.514Z,17.99
2022-08-26T13:24:33.600Z,17.89
2022-08-26T13:27:01.826Z,17.76
2022-08-26T13:29:28.839Z,17.81
2022-08-26T13:31:58.161Z,18.46
2022-08-26T13:34:25.360Z,18.29
2022-08-26T13:36:54.536Z,18.32
2022-08-26T13:39:22.190Z,18.69
2022-08-26T13:41:49.575Z,18.71
2022-08-26T13:44:16.679Z,18.90
2022-08-26T13:46:46.681Z,18.96
2022-08-26T13:49:13.756Z,19.11
2022-08-26T13:51:40.734Z,18.87
2022-08-26T13:54:07.980Z,19.23
2022-08-26T13:56:38.431Z,19.57
2022-08-26T13:59:06.516Z,19.71
2022-08-26T14:01:34.091Z,20.45
2022-08-26T14:04:00.876Z,19.88
2022-08-26T14:14:15.957Z,20.06
2022-08-26T14:16:59.681Z,20.52
2022-08-26T14:19:31.703Z,20.42
2022-08-26T14:22:03.094Z,21.06
2022-08-26T14:28:42.090Z,20.73
2022-08-26T14:31:12.132Z,21.14
2022-08-26T14:33:42.538Z,21.00
2022-08-26T14:36:28.210Z,20.75
2022-08-26T14:38:57.274Z,20.56
2022-08-26T14:41:27.252Z,20.92
2022-08-26T14:44:00.138Z,20.46
2022-08-26T14:46:30.591Z,20.50
2022-08-26T14:49:01.569Z,20.80
2022-08-26T14:51:29.226Z,20.45
2022-08-26T14:54:14.290Z,20.79
2022-08-26T14:56:46.279Z,20.55
2022-08-26T14:59:17.561Z,20.62
2022-08-26T15:01:45.733Z,20.49
2022-08-26T15:04:13.219Z,20.94
2022-08-26T15:06:40.804Z,20.25
2022-08-26T15:09:08.387Z,20.28
2022-08-26T15:11:35.231Z,20.46
2022-08-26T15:14:02.754Z,20.29
2022-08-26T15:16:29.976Z,20.22
2022-08-26T15:18:57.379Z,20.33
2022-08-26T15:21:25.886Z,20.27
2022-08-26T15:23:53.904Z,20.24
2022-08-26T15:26:22.120Z,20.16
2022-08-26T15:28:49.677Z,20.54
2022-08-26T15:31:17.032Z,20.31
2022-08-26T15:33:44.048Z,20.48
2022-08-26T15:36:11.890Z,20.80
2022-08-26T15:38:42.484Z,20.85
2022-08-26T15:41:12.527Z,21.07
2022-08-26T15:43:39.305Z,20.82
2022-08-26T15:46:11.028Z,21.31
2022-08-26T15:48:38.561Z,21.07
2022-08-26T15:51:06.801Z,21.14
2022-08-26T15:53:35.214Z,21.53
2022-08-26T15:56:02.676Z,22.03
2022-08-26T15:58:30.172Z,22.33
2022-08-26T16:00:57.656Z,22.89
2022-08-26T16:03:24.763Z,23.23
2022-08-26T16:05:51.718Z,23.63
2022-08-26T16:08:19.114Z,22.92
2022-08-26T16:10:50.754Z,23.28
2022-08-26T16:13:19.966Z,23.71
2022-08-26T16:15:48.219Z,23.62
2022-08-26T16:18:15.964Z,23.19
2022-08-26T16:21:12.558Z,22.87
2022-08-26T16:23:38.568Z,23.04
2022-08-26T16:26:10.682Z,23.02
2022-08-26T16:28:38.518Z,23.16
2022-08-26T16:31:08.582Z,23.68
2022-08-26T16:33:37.885Z,23.98
2022-08-26T16:36:05.609Z,24.19
2022-08-26T16:38:32.558Z,24.21
2022-08-26T16:41:01.302Z,24.67
2022-08-26T16:43:31.173Z,24.87
2022-08-26T16:45:58.035Z,24.95
2022-08-26T16:48:25.105Z,25.76
2022-08-26T16:50:52.096Z,25.89
2022-08-26T16:53:19.350Z,25.90
2022-08-26T16:55:47.649Z,25.97
2022-08-26T16:58:14.804Z,26.03
2022-08-26T17:00:42.071Z,26.15
2022-08-26T17:03:09.510Z,26.23
2022-08-26T17:05:36.753Z,26.51
2022-08-26T17:08:05.082Z,26.77
2022-08-26T17:10:33.044Z,26.91
2022-08-26T17:13:01.666Z,26.95
2022-08-26T17:15:31.014Z,27.16
2022-08-26T17:17:58.076Z,27.31
2022-08-26T17:20:25.146Z,27.58
2022-08-26T17:22:57.014Z,27.65
2022-08-26T17:25:26.907Z,27.68
2022-08-26T17:27:54.109Z,27.85
2022-08-26T17:30:31.159Z,27.85
2022-08-26T17:32:58.097Z,27.95
2022-08-26T17:35:26.695Z,28.18
2022-08-26T17:37:56.143Z,28.19
2022-08-26T17:40:25.998Z,28.27
2022-08-26T17:42:53.073Z,28.45
2022-08-26T17:47:56.069Z,29.00
2022-08-26T17:50:28.237Z,29.11
2022-08-26T17:52:55.332Z,29.26
2022-08-26T17:55:22.200Z,29.15
2022-08-26T17:57:53.437Z,29.34
2022-08-26T18:00:26.464Z,29.28
2022-08-26T18:02:56.410Z,29.56
2022-08-26T18:05:23.547Z,29.46
2022-08-26T18:07:51.593Z,29.75
2022-08-26T18:10:20.497Z,29.81
2022-08-26T18:12:49.353Z,30.26
2022-08-26T18:15:17.645Z,30.13
2022-08-26T18:17:44.818Z,30.04
2022-08-26T18:20:18.956Z,30.16
2022-08-26T18:22:48.314Z,30.38
2022-08-26T18:25:16.323Z,30.45
2022-08-26T18:27:43.971Z,30.14
2022-08-26T18:30:32.893Z,30.31
2022-08-26T18:33:24.646Z,30.28
2022-08-26T18:35:51.449Z,30.42
2022-08-26T18:38:18.728Z,30.80
2022-08-26T18:40:46.242Z,30.63
2022-08-26T18:43:13.137Z,30.57
2022-08-26T18:45:40.089Z,30.90
2022-08-26T18:48:06.996Z,30.97
2022-08-26T18:50:37.431Z,30.75
2022-08-26T18:53:04.174Z,30.91
2022-08-26T18:55:31.018Z,30.89
2022-08-26T18:57:58.058Z,31.33
2022-08-26T19:00:24.909Z,31.57
2022-08-26T19:02:55.737Z,31.15
2022-08-26T19:05:22.983Z,31.73
2022-08-26T19:07:51.182Z,31.69
2022-08-26T19:10:18.126Z,32.27
2022-08-26T19:12:44.953Z,31.86
2022-08-26T19:15:12.023Z,32.36
2022-08-26T19:17:38.995Z,32.25
2022-08-26T19:20:06.301Z,31.88
2022-08-26T19:22:33.309Z,32.03
2022-08-26T19:25:01.433Z,31.87
2022-08-26T19:27:30.064Z,32.13
2022-08-26T19:29:58.583Z,31.87
2022-08-26T19:32:25.784Z,32.12
2022-08-26T19:34:55.060Z,31.91
2022-08-26T19:37:21.987Z,32.24
2022-08-26T19:39:49.076Z,32.11
2022-08-26T19:42:16.802Z,31.76
2022-08-26T19:45:02.073Z,32.46
2022-08-26T19:47:33.975Z,31.86
2022-08-26T19:50:01.140Z,31.98
2022-08-26T19:52:30.411Z,32.59
2022-08-26T19:54:58.091Z,32.43
2022-08-26T19:57:24.941Z,32.45
2022-08-26T19:59:51.967Z,32.70
2022-08-26T20:02:19.342Z,32.48
2022-08-26T20:04:48.728Z,32.64
2022-08-26T20:07:18.930Z,32.26
2022-08-26T20:09:47.802Z,32.39
2022-08-26T20:12:15.639Z,32.33
2022-08-26T20:14:42.875Z,32.13
2022-08-26T20:17:09.858Z,31.27
2022-08-26T20:19:55.288Z,31.00
2022-08-26T20:22:23.194Z,30.37
2022-08-26T20:24:50.552Z,29.26
2022-08-26T20:27:17.420Z,28.63
2022-08-26T20:29:44.393Z,28.06
2022-08-26T20:32:12.144Z,27.63
2022-08-26T20:34:40.084Z,26.85
2022-08-26T20:37:08.660Z,27.48
2022-08-26T20:39:35.878Z,27.77
2022-08-26T20:42:03.395Z,27.59
2022-08-26T20:44:30.203Z,27.87
2022-08-26T20:46:59.321Z,27.82
2022-08-26T20:49:27.778Z,27.79
2022-08-26T20:51:55.053Z,27.63
2022-08-26T20:54:28.218Z,27.33
2022-08-26T20:56:57.295Z,27.07
2022-08-26T20:59:25.001Z,27.23
2022-08-26T21:01:52.020Z,27.03
2022-08-26T21:04:22.123Z,26.98
2022-08-26T21:06:52.754Z,26.91
2022-08-26T21:09:22.171Z,27.06
2022-08-26T21:11:49.392Z,27.36
2022-08-26T21:14:17.227Z,26.98
2022-08-26T21:16:47.513Z,26.69
2022-08-26T21:19:16.078Z,26.81
2022-08-26T21:21:44.656Z,26.64
2022-08-26T21:24:12.412Z,26.52
2022-08-26T21:26:42.640Z,26.31
2022-08-26T21:29:10.017Z,26.35
2022-08-26T21:31:41.025Z,26.34
2022-08-26T21:34:12.024Z,26.31
2022-08-26T21:36:38.896Z,26.31
2022-08-26T21:39:10.706Z,26.24
2022-08-26T21:41:38.705Z,26.34
2022-08-26T21:44:05.650Z,26.65
2022-08-26T21:46:35.030Z,27.35
2022-08-26T21:49:02.714Z,27.50
2022-08-26T21:51:33.024Z,27.47
2022-08-26T21:54:01.058Z,27.54
2022-08-26T21:56:31.667Z,26.92
2022-08-26T21:59:00.208Z,26.97
2022-08-26T22:01:34.920Z,27.20
2022-08-26T22:04:06.543Z,27.20
2022-08-26T22:06:35.272Z,27.06
2022-08-26T22:09:02.096Z,27.18
2022-08-26T22:11:32.026Z,27.24
2022-08-26T22:13:59.031Z,27.43
2022-08-26T22:16:28.764Z,27.37
2022-08-26T22:18:55.927Z,27.62
2022-08-26T22:21:24.991Z,27.50
2022-08-26T22:23:56.102Z,27.41
2022-08-26T22:26:27.548Z,27.52
2022-08-26T22:28:59.101Z,27.58
2022-08-26T22:31:37.701Z,27.05
2022-08-26T22:34:08.211Z,27.45
2022-08-26T22:36:36.158Z,27.16
2022-08-26T22:39:10.561Z,27.36
2022-08-26T22:41:37.645Z,27.38
2022-08-26T22:44:04.631Z,27.40
2022-08-26T22:46:35.063Z,27.18
2022-08-26T22:49:04.575Z,27.05
2022-08-26T22:51:31.965Z,27.75
2022-08-26T22:53:58.834Z,28.84
2022-08-26T22:56:25.784Z,29.84
2022-08-26T22:58:52.709Z,30.17
2022-08-26T23:01:19.607Z,30.58
2022-08-26T23:03:46.558Z,30.64
2022-08-26T23:06:13.717Z,30.72
2022-08-26T23:08:42.181Z,30.83
2022-08-26T23:11:10.687Z,31.00
2022-08-26T23:13:38.387Z,31.17
2022-08-26T23:16:09.406Z,31.15
2022-08-26T23:18:37.124Z,31.43
2022-08-26T23:21:04.685Z,31.56
2022-08-26T23:23:32.076Z,31.79
2022-08-26T23:25:59.197Z,32.01
2022-08-26T23:28:26.588Z,32.19
2022-08-26T23:30:53.955Z,32.85
2022-08-26T23:33:21.254Z,32.67
2022-08-26T23:35:48.170Z,32.82
2022-08-26T23:38:18.714Z,32.98
2022-08-26T23:40:47.993Z,33.12
2022-08-26T23:43:16.514Z,33.19
2022-08-26T23:45:43.948Z,33.44
2022-08-26T23:48:11.185Z,33.83
2022-08-26T23:50:56.867Z,34.16
2022-08-26T23:53:23.731Z,34.04
2022-08-26T23:55:52.442Z,33.91
2022-08-26T23:58:20.880Z,33.72
